Avoca, Pennsylvania
Current Conditions -  °F | °C
As of 7:54 PM on Tuesday 25 Nov 2014 (Local Time) from KAVP Reporting Station
Clear Clear  
Wind Chill: 36°   Ceiling: Unl
Heat Index: 41°   Visibility: 10mi
Dew Point: 27°   Wind: 7mph
Humidity: 57%   Direction: 200°SSW
Pressure: 30.09"   Gusts: NA
Location:  41.3331°N, 75.7365°W
Report Text: KAVP 260054Z AUTO 20006KT 10SM CLR 05/M03 A3009 RMK AO2 SLP192 T00501028
Loading
Personal Weather Stations






























Interactive Weather Map New forecast layout! Learn more

10-Day Weather Forecast

Advertisements
Track Severe Weather on mobile